Terminal Aerodrome Forecast
Issued by NWS Wakefield, VA

Home | Current Version | Previous Version | Text Only | Print | Product List | Glossary On
Versions: 1 2 3 4 5 6 7 8 9 10 11 12 13
000
FTUS41 KAKQ 222107 AAA
TAFRIC
TAF AMD
KRIC 222107Z 2221/2318 23012G18KT P6SM SCT050 BKN250
     FM222200 23008KT P6SM SCT050
     FM230400 22006KT P6SM BKN120=

USA.gov is the U.S. government's official web portal to all federal, state and local government web resources and services.